Time;durP1;ratioP1;P1;durP2;ratioP2;P2;SDS_P1;SDS_P2;PMS_P1;PMS_P2;Temp;Humidity;BMP_temperature;BMP_pressure;BME280_temperature;BME280_humidity;BME280_pressure;Samples;Min_cycle;Max_cycle;Signal;HPM_P1;HPM_P2
2022/11/13 00:02:17;;;;;;;54.43;31.67;;;;;;;;;;5055865;28;20055;-62
2022/11/13 00:04:43;;;;;;;57.83;33.03;;;;;;;;;;5050779;28;20057;-62
2022/11/13 00:07:09;;;;;;;50.30;30.30;;;;;;;;;;5050058;28;20045;-62
2022/11/13 00:09:35;;;;;;;39.60;27.03;;;;;;;;;;5050752;28;20056;-62
2022/11/13 00:12:01;;;;;;;41.47;27.30;;;;;;;;;;5064976;28;20430;-62
2022/11/13 00:14:27;;;;;;;50.57;28.43;;;;;;;;;;5050393;28;20057;-62
2022/11/13 00:16:53;;;;;;;56.77;32.73;;;;;;;;;;5050346;28;20041;-61
2022/11/13 00:19:19;;;;;;;53.53;29.03;;;;;;;;;;5050332;28;20795;-62
2022/11/13 00:21:45;;;;;;;52.13;28.73;;;;;;;;;;5050924;28;20040;-62
2022/11/13 00:24:11;;;;;;;57.90;32.37;;;;;;;;;;5050787;28;20045;-62
2022/11/13 00:26:38;;;;;;;56.27;30.50;;;;;;;;;;5049728;28;20049;-62
2022/11/13 00:29:04;;;;;;;55.17;30.13;;;;;;;;;;5048919;28;20132;-62
2022/11/13 00:31:30;;;;;;;47.53;28.20;;;;;;;;;;5050531;28;20435;-62
2022/11/13 00:33:58;;;;;;;47.67;28.07;;;;;;;;;;5049984;28;20076;-62
2022/11/13 00:36:26;;;;;;;41.97;27.27;;;;;;;;;;5057895;28;20051;-62
2022/11/13 00:38:52;;;;;;;48.40;26.70;;;;;;;;;;5070262;28;20052;-62
2022/11/13 00:41:19;;;;;;;53.13;29.40;;;;;;;;;;5074714;28;20032;-61
2022/11/13 00:43:45;;;;;;;59.70;30.80;;;;;;;;;;5090154;28;20123;-62
2022/11/13 00:46:11;;;;;;;41.27;26.07;;;;;;;;;;5090166;28;20387;-62
2022/11/13 00:48:37;;;;;;;49.03;28.83;;;;;;;;;;5077147;28;20056;-62
2022/11/13 00:51:03;;;;;;;60.53;33.13;;;;;;;;;;5069628;28;20049;-62
2022/11/13 00:53:29;;;;;;;41.67;24.97;;;;;;;;;;5070196;28;20084;-62
2022/11/13 00:55:56;;;;;;;46.77;26.13;;;;;;;;;;5065290;28;20426;-62
2022/11/13 00:58:22;;;;;;;49.33;26.67;;;;;;;;;;5049108;28;20098;-62
2022/11/13 01:00:48;;;;;;;46.70;27.13;;;;;;;;;;5049329;28;20059;-62
2022/11/13 01:03:14;;;;;;;43.77;26.93;;;;;;;;;;5048697;28;20053;-62
2022/11/13 01:05:41;;;;;;;46.73;26.13;;;;;;;;;;5049400;28;20045;-62
2022/11/13 01:08:08;;;;;;;46.60;25.67;;;;;;;;;;5049206;28;20068;-62
2022/11/13 01:10:35;;;;;;;50.37;26.70;;;;;;;;;;5049199;28;20460;-62
2022/11/13 01:13:01;;;;;;;48.20;27.47;;;;;;;;;;5064260;28;20063;-62
2022/11/13 01:15:27;;;;;;;42.90;25.00;;;;;;;;;;5069246;28;20052;-61
2022/11/13 01:17:54;;;;;;;48.53;26.73;;;;;;;;;;5069338;28;20056;-62
2022/11/13 01:20:20;;;;;;;55.40;27.17;;;;;;;;;;5069207;28;20044;-62
2022/11/13 01:22:46;;;;;;;50.90;26.77;;;;;;;;;;5068076;28;20045;-62
2022/11/13 01:25:12;;;;;;;45.03;26.13;;;;;;;;;;5069482;28;20074;-62
2022/11/13 01:27:38;;;;;;;56.27;31.63;;;;;;;;;;5069394;28;20394;-62
2022/11/13 01:30:05;;;;;;;45.83;25.43;;;;;;;;;;5069004;28;20177;-62
2022/11/13 01:32:31;;;;;;;50.03;28.00;;;;;;;;;;5052695;28;20049;-62
2022/11/13 01:34:57;;;;;;;54.43;31.27;;;;;;;;;;5049038;28;20052;-62
2022/11/13 01:37:23;;;;;;;50.70;27.57;;;;;;;;;;5051437;28;20099;-62
2022/11/13 01:39:50;;;;;;;43.43;25.27;;;;;;;;;;5088059;28;20053;-62
2022/11/13 01:42:16;;;;;;;40.53;27.03;;;;;;;;;;5074609;28;20410;-62
2022/11/13 01:44:49;;;;;;;54.73;30.97;;;;;;;;;;5069024;28;20044;-62
2022/11/13 01:47:16;;;;;;;52.22;27.85;;;;;;;;;;5069081;28;20040;-62
2022/11/13 01:49:44;;;;;;;50.37;26.73;;;;;;;;;;5071595;28;20055;-61
2022/11/13 01:52:12;;;;;;;51.57;27.93;;;;;;;;;;5063357;28;20503;-61
2022/11/13 01:54:47;;;;;;;44.70;24.67;;;;;;;;;;5048953;28;20041;-62
2022/11/13 01:57:14;;;;;;;42.73;24.00;;;;;;;;;;5049014;28;20123;-61
2022/11/13 01:59:43;;;;;;;48.90;25.13;;;;;;;;;;5056898;28;20044;-62
2022/11/13 02:02:09;;;;;;;40.47;23.87;;;;;;;;;;5059993;28;20040;-62
2022/11/13 02:04:35;;;;;;;44.70;25.60;;;;;;;;;;5070816;28;20456;-62
2022/11/13 02:07:06;;;;;;;46.50;24.40;;;;;;;;;;5060298;28;20511;-62
2022/11/13 02:09:36;;;;;;;40.83;24.07;;;;;;;;;;5058419;28;20127;-62
2022/11/13 02:12:03;;;;;;;48.23;24.40;;;;;;;;;;5056712;28;20061;-62
2022/11/13 02:14:29;;;;;;;44.20;25.03;;;;;;;;;;5063441;28;20052;-62
2022/11/13 02:16:58;;;;;;;51.23;24.97;;;;;;;;;;5068084;28;20688;-61
2022/11/13 02:19:26;;;;;;;46.00;24.43;;;;;;;;;;5060187;28;20040;-61
2022/11/13 02:22:14;;;;;;;48.03;26.73;;;;;;;;;;5051428;28;20052;-61
2022/11/13 02:24:41;;;;;;;48.97;25.47;;;;;;;;;;5048622;28;20045;-61
2022/11/13 02:27:10;;;;;;;45.13;26.57;;;;;;;;;;5065588;28;20071;-61
2022/11/13 02:29:36;;;;;;;45.53;24.57;;;;;;;;;;5056367;28;20049;-61
2022/11/13 02:32:02;;;;;;;56.13;28.70;;;;;;;;;;5060048;28;20056;-62
2022/11/13 02:34:28;;;;;;;49.40;28.10;;;;;;;;;;5051992;28;20044;-62
2022/11/13 02:36:54;;;;;;;43.47;26.13;;;;;;;;;;5059375;28;20049;-61
2022/11/13 02:39:20;;;;;;;48.43;27.13;;;;;;;;;;5057945;28;20554;-62
2022/11/13 02:41:46;;;;;;;44.17;27.40;;;;;;;;;;5047501;28;20107;-61
2022/11/13 02:44:12;;;;;;;43.83;25.47;;;;;;;;;;5055650;28;20831;-62
2022/11/13 02:46:38;;;;;;;45.70;26.53;;;;;;;;;;5057506;28;20574;-61
2022/11/13 02:49:04;;;;;;;49.73;26.67;;;;;;;;;;5067292;28;20087;-62
2022/11/13 02:51:31;;;;;;;49.73;26.67;;;;;;;;;;5059285;28;20049;-62
2022/11/13 02:53:57;;;;;;;52.30;27.17;;;;;;;;;;5051788;28;20069;-62
2022/11/13 02:56:23;;;;;;;53.40;28.57;;;;;;;;;;5051204;28;20033;-61
2022/11/13 02:58:49;;;;;;;40.63;25.33;;;;;;;;;;5057495;28;20040;-62
2022/11/13 03:01:15;;;;;;;47.40;27.43;;;;;;;;;;5074830;28;20486;-62
2022/11/13 03:03:41;;;;;;;53.17;28.87;;;;;;;;;;5071392;28;20156;-61
2022/11/13 03:06:07;;;;;;;51.37;28.33;;;;;;;;;;5067075;28;20167;-62
2022/11/13 03:08:33;;;;;;;51.57;26.77;;;;;;;;;;5067913;28;20051;-62
2022/11/13 03:10:59;;;;;;;47.83;27.03;;;;;;;;;;5070513;28;20051;-62
2022/11/13 03:13:25;;;;;;;43.73;25.43;;;;;;;;;;5063153;28;20044;-61
2022/11/13 03:15:51;;;;;;;51.17;28.43;;;;;;;;;;5053544;28;20045;-62
2022/11/13 03:18:17;;;;;;;50.63;27.70;;;;;;;;;;5055827;28;20041;-62
2022/11/13 03:20:44;;;;;;;47.33;25.67;;;;;;;;;;5063936;28;20068;-61
2022/11/13 03:23:10;;;;;;;57.43;30.13;;;;;;;;;;5060495;28;20057;-62
2022/11/13 03:25:36;;;;;;;52.93;26.63;;;;;;;;;;5052271;28;20049;-62
2022/11/13 03:28:02;;;;;;;60.20;28.93;;;;;;;;;;5058558;28;20131;-62
2022/11/13 03:30:28;;;;;;;43.20;25.50;;;;;;;;;;5060122;28;20084;-62
2022/11/13 03:32:55;;;;;;;56.80;27.70;;;;;;;;;;5053191;28;20076;-62
2022/11/13 03:35:24;;;;;;;49.43;26.20;;;;;;;;;;5061736;28;20048;-62
2022/11/13 03:37:50;;;;;;;46.60;26.10;;;;;;;;;;5062335;28;20048;-61
2022/11/13 03:40:17;;;;;;;50.70;26.33;;;;;;;;;;5062776;28;20048;-62
2022/11/13 03:42:43;;;;;;;48.73;28.63;;;;;;;;;;5060308;28;20407;-62
2022/11/13 03:45:09;;;;;;;51.60;27.57;;;;;;;;;;5059600;28;20117;-62
2022/11/13 03:47:35;;;;;;;36.90;23.97;;;;;;;;;;5052322;28;20041;-62
2022/11/13 03:50:01;;;;;;;51.57;27.43;;;;;;;;;;5065310;28;20048;-61
2022/11/13 03:52:27;;;;;;;54.67;28.00;;;;;;;;;;5061498;28;20056;-61
2022/11/13 03:54:53;;;;;;;49.50;28.07;;;;;;;;;;5057298;28;20076;-61
2022/11/13 03:57:19;;;;;;;49.80;28.33;;;;;;;;;;5059135;28;20811;-62
2022/11/13 03:59:45;;;;;;;53.73;27.17;;;;;;;;;;5050803;28;20037;-61
2022/11/13 04:02:11;;;;;;;49.70;26.37;;;;;;;;;;5050855;28;20075;-62
2022/11/13 04:04:37;;;;;;;46.17;25.40;;;;;;;;;;5066685;28;20048;-62
2022/11/13 04:07:03;;;;;;;44.90;25.10;;;;;;;;;;5050127;28;20045;-61
2022/11/13 04:09:29;;;;;;;51.37;26.37;;;;;;;;;;5062104;28;20520;-62
2022/11/13 04:11:55;;;;;;;45.67;25.43;;;;;;;;;;5058187;28;20427;-62
2022/11/13 04:14:21;;;;;;;51.60;27.60;;;;;;;;;;5051075;28;20040;-61
2022/11/13 04:16:47;;;;;;;46.50;25.37;;;;;;;;;;5053040;28;20052;-61
2022/11/13 04:19:13;;;;;;;46.67;25.73;;;;;;;;;;5055502;28;20048;-61
2022/11/13 04:21:40;;;;;;;40.60;24.00;;;;;;;;;;5066112;28;20052;-62
2022/11/13 04:24:06;;;;;;;47.57;25.67;;;;;;;;;;5056818;28;20037;-61
2022/11/13 04:26:32;;;;;;;43.87;24.87;;;;;;;;;;5066340;28;20041;-61
2022/11/13 04:28:58;;;;;;;47.70;25.30;;;;;;;;;;5053435;28;20044;-61
2022/11/13 04:31:24;;;;;;;44.33;24.63;;;;;;;;;;5062688;28;20049;-62
2022/11/13 04:33:50;;;;;;;48.33;25.03;;;;;;;;;;5058264;28;20045;-61
2022/11/13 04:36:16;;;;;;;42.63;24.53;;;;;;;;;;5064371;28;20049;-61
2022/11/13 04:38:43;;;;;;;51.50;26.17;;;;;;;;;;5061394;28;20055;-61
2022/11/13 04:43:57;;;;;;;44.47;24.47;;;;;;;;;;5059291;28;20568;-62
2022/11/13 04:46:23;;;;;;;45.07;26.30;;;;;;;;;;5050027;28;20047;-61
2022/11/13 04:48:49;;;;;;;41.67;25.07;;;;;;;;;;5059231;28;20048;-62
2022/11/13 04:51:15;;;;;;;44.53;24.93;;;;;;;;;;5059247;28;20071;-62
2022/11/13 04:53:41;;;;;;;50.83;26.90;;;;;;;;;;5066314;28;20800;-62
2022/11/13 04:56:07;;;;;;;50.77;27.97;;;;;;;;;;5049922;28;20052;-61
2022/11/13 04:58:33;;;;;;;47.77;26.97;;;;;;;;;;5064616;28;20045;-62
2022/11/13 05:00:59;;;;;;;46.73;26.17;;;;;;;;;;5060318;28;20064;-62
2022/11/13 05:03:25;;;;;;;43.80;25.60;;;;;;;;;;5063099;28;20069;-62
2022/11/13 05:05:51;;;;;;;53.50;27.50;;;;;;;;;;5057054;28;20056;-62
2022/11/13 05:08:17;;;;;;;41.77;24.13;;;;;;;;;;5057251;28;20044;-62
2022/11/13 05:10:43;;;;;;;48.50;25.50;;;;;;;;;;5055505;28;20071;-62
2022/11/13 05:13:09;;;;;;;51.10;24.83;;;;;;;;;;5064847;28;20063;-62
2022/11/13 05:15:35;;;;;;;51.63;26.37;;;;;;;;;;5062766;28;20575;-62
2022/11/13 05:18:01;;;;;;;48.10;25.37;;;;;;;;;;5049109;28;20426;-62
2022/11/13 05:20:27;;;;;;;43.30;24.57;;;;;;;;;;5058383;28;20044;-62
2022/11/13 05:22:54;;;;;;;40.97;23.33;;;;;;;;;;5056927;28;20052;-62
2022/11/13 05:25:20;;;;;;;42.53;24.07;;;;;;;;;;5068789;28;20044;-62
2022/11/13 05:27:46;;;;;;;46.63;24.50;;;;;;;;;;5062491;28;20090;-62
2022/11/13 05:30:12;;;;;;;51.23;25.83;;;;;;;;;;5065834;28;20683;-62
2022/11/13 05:32:38;;;;;;;46.77;24.83;;;;;;;;;;5058711;28;20120;-62
2022/11/13 05:35:04;;;;;;;44.53;24.83;;;;;;;;;;5057121;28;20037;-62
2022/11/13 05:37:30;;;;;;;44.53;25.37;;;;;;;;;;5052180;28;20044;-62
2022/11/13 05:39:56;;;;;;;46.03;26.17;;;;;;;;;;5060370;28;20053;-62
2022/11/13 05:42:22;;;;;;;49.47;26.37;;;;;;;;;;5064474;28;20135;-62
2022/11/13 05:44:48;;;;;;;48.93;25.63;;;;;;;;;;5059439;28;20052;-62
2022/11/13 05:47:14;;;;;;;49.53;27.37;;;;;;;;;;5061005;28;20167;-62
2022/11/13 05:49:40;;;;;;;57.27;28.73;;;;;;;;;;5049236;28;20045;-62
2022/11/13 05:52:07;;;;;;;55.77;29.17;;;;;;;;;;5053056;28;20068;-62
2022/11/13 05:54:33;;;;;;;47.93;26.83;;;;;;;;;;5062313;28;20052;-61
2022/11/13 05:56:59;;;;;;;48.77;24.87;;;;;;;;;;5062144;28;20037;-62
2022/11/13 05:59:25;;;;;;;49.30;24.80;;;;;;;;;;5056989;28;20052;-61
2022/11/13 06:01:51;;;;;;;37.67;24.07;;;;;;;;;;5059244;28;20106;-62
2022/11/13 06:04:17;;;;;;;49.33;26.43;;;;;;;;;;5060017;28;20052;-62
2022/11/13 06:06:43;;;;;;;47.60;27.10;;;;;;;;;;5058155;28;20043;-62
2022/11/13 06:09:09;;;;;;;53.70;27.20;;;;;;;;;;5059859;28;20139;-62
2022/11/13 06:11:36;;;;;;;64.37;29.70;;;;;;;;;;5070084;28;20559;-62
2022/11/13 06:14:02;;;;;;;55.90;26.23;;;;;;;;;;5068995;28;20136;-61
2022/11/13 06:16:29;;;;;;;47.17;27.77;;;;;;;;;;5057784;28;20498;-62
2022/11/13 06:18:57;;;;;;;53.83;27.93;;;;;;;;;;5063315;28;20641;-62
2022/11/13 06:21:25;;;;;;;53.00;26.97;;;;;;;;;;5064187;28;20041;-62
2022/11/13 06:23:51;;;;;;;58.93;28.23;;;;;;;;;;5060479;28;20082;-62
2022/11/13 06:26:19;;;;;;;60.87;30.07;;;;;;;;;;5068726;28;20117;-62
2022/11/13 06:28:45;;;;;;;50.67;29.03;;;;;;;;;;5067345;28;20044;-62
2022/11/13 06:31:21;;;;;;;62.77;28.60;;;;;;;;;;5063838;28;20037;-62
2022/11/13 06:33:47;;;;;;;59.67;28.47;;;;;;;;;;5063870;28;20442;-62
2022/11/13 06:36:18;;;;;;;58.33;27.43;;;;;;;;;;5065673;28;20087;-61
2022/11/13 06:38:44;;;;;;;63.27;28.93;;;;;;;;;;5068077;28;20090;-61
2022/11/13 06:41:12;;;;;;;53.30;27.50;;;;;;;;;;5065320;28;20052;-62
2022/11/13 06:43:38;;;;;;;53.43;27.87;;;;;;;;;;5054778;28;20049;-62
2022/11/13 06:46:05;;;;;;;53.07;28.30;;;;;;;;;;5063488;28;20044;-62
2022/11/13 06:48:32;;;;;;;52.97;27.57;;;;;;;;;;5064274;28;20072;-62
2022/11/13 06:51:02;;;;;;;52.40;28.27;;;;;;;;;;5051318;28;20515;-62
2022/11/13 06:53:28;;;;;;;48.80;25.40;;;;;;;;;;5051987;28;20048;-62
2022/11/13 06:55:54;;;;;;;57.87;27.93;;;;;;;;;;5066552;28;20055;-62
2022/11/13 06:58:20;;;;;;;51.07;28.23;;;;;;;;;;5064586;28;20032;-62
2022/11/13 07:00:46;;;;;;;58.33;29.57;;;;;;;;;;5063225;28;20065;-62
2022/11/13 07:03:20;;;;;;;60.47;30.60;;;;;;;;;;5066483;28;20044;-62
2022/11/13 07:05:46;;;;;;;57.33;29.52;;;;;;;;;;5053690;28;20076;-62
2022/11/13 07:08:12;;;;;;;60.87;29.60;;;;;;;;;;5068213;28;20041;-62
2022/11/13 07:10:38;;;;;;;59.93;30.50;;;;;;;;;;5059528;28;20041;-62
2022/11/13 07:13:04;;;;;;;65.00;29.50;;;;;;;;;;5059538;28;20053;-61
2022/11/13 07:15:34;;;;;;;66.33;32.17;;;;;;;;;;5070748;28;20047;-62
2022/11/13 07:18:01;;;;;;;51.87;28.70;;;;;;;;;;5064725;28;20044;-62
2022/11/13 07:20:27;;;;;;;58.20;28.83;;;;;;;;;;5067540;28;20105;-62
2022/11/13 07:22:57;;;;;;;60.13;29.63;;;;;;;;;;5063368;28;20037;-62
2022/11/13 07:25:23;;;;;;;64.80;31.40;;;;;;;;;;5071227;28;20831;-62
2022/11/13 07:27:49;;;;;;;54.70;29.03;;;;;;;;;;5056283;28;20562;-62
2022/11/13 07:30:15;;;;;;;56.70;29.63;;;;;;;;;;5059139;28;20051;-62
2022/11/13 07:32:41;;;;;;;52.70;28.07;;;;;;;;;;5064388;28;20108;-62
2022/11/13 07:35:07;;;;;;;54.87;28.83;;;;;;;;;;5070255;28;20127;-62
2022/11/13 07:37:33;;;;;;;49.53;27.30;;;;;;;;;;5071436;28;20553;-62
2022/11/13 07:40:00;;;;;;;58.33;28.73;;;;;;;;;;5068657;28;20402;-62
2022/11/13 07:42:26;;;;;;;57.40;28.60;;;;;;;;;;5066728;28;20041;-62
2022/11/13 07:44:52;;;;;;;50.27;27.20;;;;;;;;;;5051259;28;20040;-62
2022/11/13 07:47:18;;;;;;;61.07;30.33;;;;;;;;;;5062572;28;20064;-62
2022/11/13 07:49:44;;;;;;;53.20;26.97;;;;;;;;;;5052889;28;20048;-62
2022/11/13 07:52:10;;;;;;;57.13;29.10;;;;;;;;;;5063749;28;20037;-62
2022/11/13 07:54:36;;;;;;;38.97;23.67;;;;;;;;;;5066845;28;20106;-62
2022/11/13 07:57:02;;;;;;;52.13;28.57;;;;;;;;;;5064972;28;20449;-62
2022/11/13 07:59:28;;;;;;;50.90;27.50;;;;;;;;;;5058902;28;20041;-61
2022/11/13 08:01:54;;;;;;;53.37;28.10;;;;;;;;;;5069504;28;20048;-62
2022/11/13 08:04:20;;;;;;;37.83;23.73;;;;;;;;;;5066008;28;20042;-62
2022/11/13 08:06:46;;;;;;;50.07;26.77;;;;;;;;;;5068966;28;20122;-62
2022/11/13 08:09:12;;;;;;;49.77;28.47;;;;;;;;;;5065923;28;20052;-62
2022/11/13 08:11:38;;;;;;;33.93;22.70;;;;;;;;;;5068574;28;20510;-62
2022/11/13 08:14:04;;;;;;;57.90;30.77;;;;;;;;;;5068022;28;20048;-62
2022/11/13 08:16:30;;;;;;;34.40;22.90;;;;;;;;;;5069003;28;20037;-62
2022/11/13 08:18:56;;;;;;;36.83;23.60;;;;;;;;;;5065971;28;20040;-62
2022/11/13 08:21:23;;;;;;;40.23;25.33;;;;;;;;;;5069702;28;20044;-62
2022/11/13 08:23:49;;;;;;;46.37;25.47;;;;;;;;;;5064229;28;20049;-62
2022/11/13 08:26:16;;;;;;;42.87;26.20;;;;;;;;;;5063349;28;20396;-62
2022/11/13 08:28:42;;;;;;;39.20;25.23;;;;;;;;;;5067539;28;20454;-64
2022/11/13 08:31:12;;;;;;;32.53;22.40;;;;;;;;;;5063781;28;20119;-63
2022/11/13 08:33:38;;;;;;;53.93;26.03;;;;;;;;;;5064050;28;20047;-63
2022/11/13 08:36:05;;;;;;;35.97;23.03;;;;;;;;;;5065344;28;20347;-62
2022/11/13 08:38:31;;;;;;;35.43;23.23;;;;;;;;;;5060845;28;20044;-62
2022/11/13 08:40:58;;;;;;;36.53;24.23;;;;;;;;;;5067367;28;20152;-62
2022/11/13 08:43:24;;;;;;;35.60;24.00;;;;;;;;;;5064189;28;20048;-62
2022/11/13 08:45:50;;;;;;;23.57;18.20;;;;;;;;;;5063668;28;20040;-62
2022/11/13 08:48:16;;;;;;;26.40;18.60;;;;;;;;;;5066318;28;20047;-61
2022/11/13 08:50:42;;;;;;;24.73;18.20;;;;;;;;;;5072384;28;20044;-62
2022/11/13 08:53:08;;;;;;;36.27;23.70;;;;;;;;;;5068304;28;20082;-62
2022/11/13 08:55:34;;;;;;;27.17;18.60;;;;;;;;;;5066029;28;20086;-62
2022/11/13 08:58:01;;;;;;;26.80;19.40;;;;;;;;;;5063785;28;20037;-61
2022/11/13 09:00:28;;;;;;;22.60;16.80;;;;;;;;;;5067261;28;20486;-62
2022/11/13 09:02:55;;;;;;;28.83;18.60;;;;;;;;;;5067571;28;20036;-63
2022/11/13 09:05:22;;;;;;;26.97;18.30;;;;;;;;;;5064549;28;20049;-62
2022/11/13 09:07:48;;;;;;;28.67;19.73;;;;;;;;;;5052603;28;20096;-61
2022/11/13 09:10:14;;;;;;;25.17;17.40;;;;;;;;;;5048695;28;20414;-62
2022/11/13 09:12:40;;;;;;;28.30;20.10;;;;;;;;;;5054644;28;20057;-62
2022/11/13 09:15:07;;;;;;;27.50;19.33;;;;;;;;;;5061773;28;20060;-62
2022/11/13 09:17:33;;;;;;;34.50;20.23;;;;;;;;;;5049052;28;20044;-62
2022/11/13 09:19:59;;;;;;;26.97;18.17;;;;;;;;;;5057710;28;20036;-61
2022/11/13 09:22:25;;;;;;;25.13;18.63;;;;;;;;;;5068879;28;20559;-62
2022/11/13 09:24:51;;;;;;;35.37;24.57;;;;;;;;;;5073273;28;20040;-62
2022/11/13 09:27:17;;;;;;;35.53;25.50;;;;;;;;;;5072519;28;20056;-62
2022/11/13 09:29:43;;;;;;;27.67;22.87;;;;;;;;;;5064297;28;20044;-62
2022/11/13 09:32:09;;;;;;;35.53;25.83;;;;;;;;;;5068636;28;20067;-62
2022/11/13 09:34:35;;;;;;;28.83;21.73;;;;;;;;;;5069302;28;20048;-61
2022/11/13 09:37:01;;;;;;;21.63;18.23;;;;;;;;;;5063607;28;20491;-62
2022/11/13 09:39:27;;;;;;;19.83;16.20;;;;;;;;;;5068648;28;20041;-61
2022/11/13 09:41:57;;;;;;;19.10;13.63;;;;;;;;;;5068701;28;20056;-62
2022/11/13 09:44:30;;;;;;;13.40;11.53;;;;;;;;;;5068884;28;20478;-62
2022/11/13 09:47:29;;;;;;;12.10;9.40;;;;;;;;;;5065409;28;20048;-61
2022/11/13 09:50:15;;;;;;;13.80;10.30;;;;;;;;;;5039323;28;20044;-62
2022/11/13 09:52:43;;;;;;;13.13;10.37;;;;;;;;;;5054738;28;20079;-62
2022/11/13 09:55:13;;;;;;;10.40;8.77;;;;;;;;;;5051435;28;20522;-62
2022/11/13 09:57:49;;;;;;;11.27;9.17;;;;;;;;;;5048892;28;20064;-62
2022/11/13 10:00:18;;;;;;;13.07;9.57;;;;;;;;;;5049581;28;20527;-62
2022/11/13 10:02:46;;;;;;;19.67;10.83;;;;;;;;;;5048378;28;20045;-62
2022/11/13 10:05:31;;;;;;;11.17;8.60;;;;;;;;;;5063273;28;20965;-62
2022/11/13 10:08:03;;;;;;;11.50;9.07;;;;;;;;;;5051921;28;20506;-62
2022/11/13 10:10:29;;;;;;;11.00;7.77;;;;;;;;;;5048573;28;20049;-62
2022/11/13 10:12:56;;;;;;;11.63;7.67;;;;;;;;;;5048178;28;20368;-62
2022/11/13 10:15:22;;;;;;;8.10;6.70;;;;;;;;;;5047002;28;20059;-62
2022/11/13 10:17:52;;;;;;;7.97;6.60;;;;;;;;;;5053973;28;20547;-63
2022/11/13 10:20:18;;;;;;;8.10;5.57;;;;;;;;;;5065372;28;20047;-62
2022/11/13 10:22:49;;;;;;;7.57;5.43;;;;;;;;;;5066800;28;20051;-63
2022/11/13 10:25:17;;;;;;;8.73;6.00;;;;;;;;;;5068125;28;20186;-63
2022/11/13 10:28:03;;;;;;;6.70;5.50;;;;;;;;;;5061804;28;20044;-63
2022/11/13 10:30:29;;;;;;;6.93;4.90;;;;;;;;;;5048966;28;20578;-63
2022/11/13 10:33:01;;;;;;;7.53;5.50;;;;;;;;;;5048161;28;20045;-63
2022/11/13 10:35:27;;;;;;;7.40;4.80;;;;;;;;;;5048752;28;20419;-63
2022/11/13 10:37:56;;;;;;;6.17;5.03;;;;;;;;;;5057737;28;20640;-63
2022/11/13 10:40:26;;;;;;;7.50;5.13;;;;;;;;;;5057190;28;20043;-62
2022/11/13 10:42:52;;;;;;;6.57;5.00;;;;;;;;;;5068293;28;20136;-63
2022/11/13 10:45:20;;;;;;;7.27;5.00;;;;;;;;;;5067953;28;20041;-63
2022/11/13 10:47:48;;;;;;;7.00;4.83;;;;;;;;;;5066597;28;20044;-63
2022/11/13 10:50:25;;;;;;;8.00;5.50;;;;;;;;;;5064958;28;20089;-63
2022/11/13 10:52:52;;;;;;;7.67;4.77;;;;;;;;;;5067829;28;20048;-63
2022/11/13 10:55:28;;;;;;;6.77;5.00;;;;;;;;;;5067287;28;20124;-63
2022/11/13 10:57:55;;;;;;;7.13;5.10;;;;;;;;;;5062689;28;20041;-63
2022/11/13 11:00:43;;;;;;;7.87;4.83;;;;;;;;;;5059936;28;20041;-62
2022/11/13 11:03:16;;;;;;;5.77;4.50;;;;;;;;;;5066776;28;20123;-63
2022/11/13 11:05:51;;;;;;;8.05;4.82;;;;;;;;;;5064783;28;20044;-63
2022/11/13 11:08:18;;;;;;;6.50;4.50;;;;;;;;;;5068712;28;20047;-63
2022/11/13 11:13:38;;;;;;;5.90;4.70;;;;;;;;;;5053030;28;20522;-63
2022/11/13 11:16:05;;;;;;;7.23;4.80;;;;;;;;;;5071439;28;20044;-63
2022/11/13 11:18:40;;;;;;;6.77;4.20;;;;;;;;;;5072430;28;20097;-63
2022/11/13 11:21:08;;;;;;;7.30;4.93;;;;;;;;;;5067796;28;20041;-62
2022/11/13 11:23:44;;;;;;;5.53;4.43;;;;;;;;;;5052146;28;20064;-63
2022/11/13 11:26:29;;;;;;;7.17;5.03;;;;;;;;;;5063819;28;20048;-63
2022/11/13 11:29:01;;;;;;;6.43;4.80;;;;;;;;;;5071573;28;20040;-63
2022/11/13 11:31:46;;;;;;;6.07;4.80;;;;;;;;;;5059784;28;20053;-63
2022/11/13 11:34:13;;;;;;;6.20;4.90;;;;;;;;;;5061412;28;20084;-61
2022/11/13 11:36:57;;;;;;;6.23;4.97;;;;;;;;;;5061368;28;20037;-62
2022/11/13 11:39:42;;;;;;;7.57;4.33;;;;;;;;;;5056703;28;20048;-62
2022/11/13 11:42:08;;;;;;;5.27;4.10;;;;;;;;;;5060685;28;20077;-61
2022/11/13 11:44:52;;;;;;;5.73;4.40;;;;;;;;;;5052749;28;20041;-62
2022/11/13 11:47:18;;;;;;;5.50;4.57;;;;;;;;;;5052111;28;20773;-61
2022/11/13 11:49:44;;;;;;;5.87;4.80;;;;;;;;;;5050635;28;20118;-62
2022/11/13 11:52:13;;;;;;;6.40;4.90;;;;;;;;;;5050764;28;20044;-61
2022/11/13 11:54:42;;;;;;;7.03;4.23;;;;;;;;;;5047907;28;20049;-62
2022/11/13 11:57:12;;;;;;;5.57;4.63;;;;;;;;;;5048425;28;20324;-62
2022/11/13 11:59:50;;;;;;;6.47;4.50;;;;;;;;;;5048558;28;20129;-61
2022/11/13 12:02:22;;;;;;;6.63;4.30;;;;;;;;;;5049326;28;20049;-62
2022/11/13 12:04:54;;;;;;;8.17;4.23;;;;;;;;;;5067639;28;20057;-62
2022/11/13 12:07:26;;;;;;;6.83;4.20;;;;;;;;;;5066918;28;20052;-62
2022/11/13 12:09:52;;;;;;;6.40;4.33;;;;;;;;;;5067079;28;20052;-62
2022/11/13 12:12:33;;;;;;;7.00;4.73;;;;;;;;;;5066282;28;20048;-62
2022/11/13 12:15:05;;;;;;;5.27;3.80;;;;;;;;;;5067571;28;20048;-62
2022/11/13 12:17:40;;;;;;;7.00;4.38;;;;;;;;;;5053653;28;20148;-61
2022/11/13 12:20:09;;;;;;;7.60;3.97;;;;;;;;;;5057868;28;20059;-62
2022/11/13 12:22:42;;;;;;;4.63;3.73;;;;;;;;;;5069131;28;20041;-62
2022/11/13 12:25:19;;;;;;;4.90;3.42;;;;;;;;;;5068898;28;20103;-62
2022/11/13 12:28:04;;;;;;;4.57;3.13;;;;;;;;;;5069413;28;20356;-62
2022/11/13 12:30:48;;;;;;;7.30;4.20;;;;;;;;;;5069452;28;20356;-62
2022/11/13 12:33:17;;;;;;;4.73;3.67;;;;;;;;;;5057601;28;20053;-62
2022/11/13 12:35:45;;;;;;;5.47;3.80;;;;;;;;;;5049054;28;20495;-62
2022/11/13 12:38:21;;;;;;;6.53;3.90;;;;;;;;;;5049646;28;20044;-62
2022/11/13 12:40:47;;;;;;;4.93;3.70;;;;;;;;;;5049210;28;20090;-62
2022/11/13 12:43:32;;;;;;;4.77;3.77;;;;;;;;;;5049513;28;20053;-62
2022/11/13 12:46:00;;;;;;;5.40;3.27;;;;;;;;;;5048616;28;20041;-62
2022/11/13 12:48:31;;;;;;;5.23;3.93;;;;;;;;;;5048193;28;20052;-62
2022/11/13 12:50:59;;;;;;;5.73;4.10;;;;;;;;;;5048852;28;20057;-62
2022/11/13 12:53:30;;;;;;;5.20;4.30;;;;;;;;;;5047702;28;20056;-62
2022/11/13 12:56:02;;;;;;;4.47;3.67;;;;;;;;;;5048678;28;20053;-62
2022/11/13 12:58:30;;;;;;;5.07;3.85;;;;;;;;;;5057412;28;20052;-63
2022/11/13 13:01:12;;;;;;;4.27;3.53;;;;;;;;;;5047675;28;20541;-62
2022/11/13 13:03:41;;;;;;;5.25;3.70;;;;;;;;;;5060771;28;20056;-62
2022/11/13 13:06:16;;;;;;;4.20;3.10;;;;;;;;;;5068503;28;20048;-62
2022/11/13 13:08:54;;;;;;;6.17;3.47;;;;;;;;;;5068679;28;20465;-62
2022/11/13 13:11:23;;;;;;;4.67;3.43;;;;;;;;;;5068708;28;20087;-62
2022/11/13 13:13:49;;;;;;;5.97;3.70;;;;;;;;;;5068654;28;20056;-62
2022/11/13 13:16:24;;;;;;;4.50;3.53;;;;;;;;;;5068810;28;20213;-62
2022/11/13 13:18:50;;;;;;;4.83;3.17;;;;;;;;;;5060610;28;20049;-62
2022/11/13 13:21:17;;;;;;;5.30;3.13;;;;;;;;;;5068576;28;20754;-62
2022/11/13 13:23:45;;;;;;;5.00;3.40;;;;;;;;;;5067915;28;20194;-62
2022/11/13 13:26:19;;;;;;;4.47;2.83;;;;;;;;;;5068726;28;20048;-62
2022/11/13 13:28:56;;;;;;;5.13;3.20;;;;;;;;;;5068194;28;20560;-62
2022/11/13 13:31:25;;;;;;;3.43;3.07;;;;;;;;;;5067660;28;20044;-62
2022/11/13 13:34:02;;;;;;;4.53;2.80;;;;;;;;;;5086640;28;20040;-63
2022/11/13 13:36:31;;;;;;;5.90;4.37;;;;;;;;;;5088076;28;20058;-62
2022/11/13 13:39:12;;;;;;;5.43;4.13;;;;;;;;;;5088800;28;20048;-62
2022/11/13 13:41:44;;;;;;;4.37;3.30;;;;;;;;;;5088435;28;20061;-62
2022/11/13 13:44:17;;;;;;;4.60;2.83;;;;;;;;;;5053410;28;20047;-62
2022/11/13 13:46:43;;;;;;;5.03;3.50;;;;;;;;;;5047271;28;20049;-63
2022/11/13 13:49:15;;;;;;;5.10;2.93;;;;;;;;;;5048366;28;20041;-62
2022/11/13 13:51:42;;;;;;;4.37;2.70;;;;;;;;;;5047843;28;20098;-62
2022/11/13 13:54:09;;;;;;;5.37;2.90;;;;;;;;;;5048418;28;20534;-62
2022/11/13 13:56:41;;;;;;;4.47;2.83;;;;;;;;;;5048157;28;20036;-62
2022/11/13 13:59:21;;;;;;;5.25;2.75;;;;;;;;;;5066204;28;20494;-62
2022/11/13 14:01:58;;;;;;;3.93;2.43;;;;;;;;;;5085144;28;20232;-62
2022/11/13 14:04:25;;;;;;;5.53;3.07;;;;;;;;;;5088103;28;20131;-62
2022/11/13 14:06:58;;;;;;;4.33;2.77;;;;;;;;;;5087802;28;20098;-62
2022/11/13 14:09:26;;;;;;;4.63;3.00;;;;;;;;;;5087644;28;20040;-62
2022/11/13 14:11:58;;;;;;;4.93;2.47;;;;;;;;;;5084865;28;20040;-62
2022/11/13 14:14:24;;;;;;;4.50;2.73;;;;;;;;;;5067937;28;20102;-62
2022/11/13 14:16:51;;;;;;;5.63;2.57;;;;;;;;;;5067725;28;20086;-62
2022/11/13 14:19:18;;;;;;;4.20;2.40;;;;;;;;;;5067865;28;20048;-62
2022/11/13 14:21:44;;;;;;;5.73;2.90;;;;;;;;;;5067252;28;20562;-62
2022/11/13 14:24:20;;;;;;;3.70;2.90;;;;;;;;;;5067541;28;20403;-62
2022/11/13 14:26:47;;;;;;;4.87;2.60;;;;;;;;;;5051881;28;20053;-62
2022/11/13 14:29:21;;;;;;;5.93;2.27;;;;;;;;;;5047753;28;20048;-62
2022/11/13 14:31:47;;;;;;;2.90;2.10;;;;;;;;;;5047580;28;20048;-63
2022/11/13 14:34:17;;;;;;;4.33;2.67;;;;;;;;;;5046891;28;20045;-62
2022/11/13 14:36:44;;;;;;;3.10;2.27;;;;;;;;;;5047682;28;20053;-62
2022/11/13 14:39:20;;;;;;;3.30;2.40;;;;;;;;;;5047263;28;20415;-62